sensor_id;sensor_type;location;lat;lon;timestamp;pressure;altitude;pressure_sealevel;temperature;humidity
76022;BME280;64718;52.124;6.226;2023-03-01T00:00:05;103214.97;;;-3.40;94.72
76022;BME280;64718;52.124;6.226;2023-03-01T00:02:32;103219.25;;;-3.39;95.60
76022;BME280;64718;52.124;6.226;2023-03-01T00:04:58;103210.59;;;-3.27;96.65
76022;BME280;64718;52.124;6.226;2023-03-01T00:07:25;103217.03;;;-3.33;96.37
76022;BME280;64718;52.124;6.226;2023-03-01T00:09:53;103212.47;;;-3.55;96.22
76022;BME280;64718;52.124;6.226;2023-03-01T00:12:19;103205.19;;;-3.80;96.66
76022;BME280;64718;52.124;6.226;2023-03-01T00:14:46;103213.91;;;-4.06;97.84
76022;BME280;64718;52.124;6.226;2023-03-01T00:17:12;103200.53;;;-4.18;99.67
76022;BME280;64718;52.124;6.226;2023-03-01T00:19:39;103207.91;;;-4.37;99.96
76022;BME280;64718;52.124;6.226;2023-03-01T00:22:05;103205.91;;;-4.43;100.00
76022;BME280;64718;52.124;6.226;2023-03-01T00:24:32;103203.81;;;-4.50;100.00
76022;BME280;64718;52.124;6.226;2023-03-01T00:27:00;103205.03;;;-4.58;100.00
76022;BME280;64718;52.124;6.226;2023-03-01T00:29:27;103204.31;;;-4.56;100.00
76022;BME280;64718;52.124;6.226;2023-03-01T00:31:53;103197.69;;;-4.54;100.00
76022;BME280;64718;52.124;6.226;2023-03-01T00:34:20;103206.25;;;-4.52;100.00
76022;BME280;64718;52.124;6.226;2023-03-01T00:36:47;103201.00;;;-4.55;100.00
76022;BME280;64718;52.124;6.226;2023-03-01T00:39:14;103197.84;;;-4.51;100.00
76022;BME280;64718;52.124;6.226;2023-03-01T00:41:41;103204.84;;;-4.61;100.00
76022;BME280;64718;52.124;6.226;2023-03-01T00:44:10;103202.75;;;-4.39;100.00
76022;BME280;64718;52.124;6.226;2023-03-01T00:46:38;103197.53;;;-3.96;100.00
76022;BME280;64718;52.124;6.226;2023-03-01T00:49:05;103196.38;;;-3.70;99.88
76022;BME280;64718;52.124;6.226;2023-03-01T00:51:31;103191.06;;;-3.59;99.19
76022;BME280;64718;52.124;6.226;2023-03-01T00:54:00;103194.16;;;-3.80;98.23
76022;BME280;64718;52.124;6.226;2023-03-01T00:56:27;103187.03;;;-4.02;98.29
76022;BME280;64718;52.124;6.226;2023-03-01T00:58:54;103180.91;;;-4.21;99.46
76022;BME280;64718;52.124;6.226;2023-03-01T01:01:24;103188.97;;;-4.28;99.85
76022;BME280;64718;52.124;6.226;2023-03-01T01:03:54;103182.38;;;-4.09;100.00
76022;BME280;64718;52.124;6.226;2023-03-01T01:06:22;103182.69;;;-3.89;99.24
76022;BME280;64718;52.124;6.226;2023-03-01T01:08:50;103184.81;;;-3.49;97.87
76022;BME280;64718;52.124;6.226;2023-03-01T01:11:17;103169.25;;;-3.39;97.15
76022;BME280;64718;52.124;6.226;2023-03-01T01:13:46;103171.47;;;-3.29;96.49
76022;BME280;64718;52.124;6.226;2023-03-01T01:16:13;103171.72;;;-3.24;95.58
76022;BME280;64718;52.124;6.226;2023-03-01T01:18:42;103169.41;;;-3.20;95.14
76022;BME280;64718;52.124;6.226;2023-03-01T01:21:10;103158.28;;;-3.22;95.36
76022;BME280;64718;52.124;6.226;2023-03-01T01:23:38;103155.97;;;-3.17;95.60
76022;BME280;64718;52.124;6.226;2023-03-01T01:26:06;103151.75;;;-3.16;94.96
76022;BME280;64718;52.124;6.226;2023-03-01T01:28:33;103148.19;;;-3.20;95.46
76022;BME280;64718;52.124;6.226;2023-03-01T01:30:59;103153.25;;;-3.20;94.58
76022;BME280;64718;52.124;6.226;2023-03-01T01:33:27;103155.00;;;-3.19;95.35
76022;BME280;64718;52.124;6.226;2023-03-01T01:35:55;103154.69;;;-3.25;94.73
76022;BME280;64718;52.124;6.226;2023-03-01T01:38:21;103161.94;;;-3.33;95.44
76022;BME280;64718;52.124;6.226;2023-03-01T01:40:48;103166.25;;;-3.32;95.34
76022;BME280;64718;52.124;6.226;2023-03-01T01:43:19;103166.94;;;-3.18;95.49
76022;BME280;64718;52.124;6.226;2023-03-01T01:45:46;103162.16;;;-3.12;94.22
76022;BME280;64718;52.124;6.226;2023-03-01T01:48:17;103152.84;;;-3.11;93.80
76022;BME280;64718;52.124;6.226;2023-03-01T01:50:45;103152.22;;;-3.07;93.84
76022;BME280;64718;52.124;6.226;2023-03-01T01:53:18;103148.78;;;-3.08;93.42
76022;BME280;64718;52.124;6.226;2023-03-01T01:55:48;103148.31;;;-3.17;93.92
76022;BME280;64718;52.124;6.226;2023-03-01T01:58:19;103154.78;;;-3.40;94.03
76022;BME280;64718;52.124;6.226;2023-03-01T02:00:48;103154.22;;;-3.51;95.14
76022;BME280;64718;52.124;6.226;2023-03-01T02:03:18;103156.66;;;-3.52;95.06
76022;BME280;64718;52.124;6.226;2023-03-01T02:05:51;103152.06;;;-3.59;95.88
76022;BME280;64718;52.124;6.226;2023-03-01T02:08:24;103147.28;;;-3.53;95.55
76022;BME280;64718;52.124;6.226;2023-03-01T02:10:53;103147.09;;;-3.41;95.55
76022;BME280;64718;52.124;6.226;2023-03-01T02:13:20;103146.38;;;-3.39;95.01
76022;BME280;64718;52.124;6.226;2023-03-01T02:15:48;103149.31;;;-3.31;95.30
76022;BME280;64718;52.124;6.226;2023-03-01T02:18:17;103139.13;;;-3.31;95.62
76022;BME280;64718;52.124;6.226;2023-03-01T02:20:48;103131.19;;;-3.37;95.44
76022;BME280;64718;52.124;6.226;2023-03-01T02:23:17;103132.69;;;-3.41;94.89
76022;BME280;64718;52.124;6.226;2023-03-01T02:25:49;103124.72;;;-3.47;94.89
76022;BME280;64718;52.124;6.226;2023-03-01T02:28:24;103125.78;;;-3.43;95.32
76022;BME280;64718;52.124;6.226;2023-03-01T02:30:51;103125.38;;;-3.35;94.91
76022;BME280;64718;52.124;6.226;2023-03-01T02:33:37;103137.63;;;-3.44;94.88
76022;BME280;64718;52.124;6.226;2023-03-01T02:36:06;103134.19;;;-3.61;95.35
76022;BME280;64718;52.124;6.226;2023-03-01T02:38:34;103130.44;;;-3.67;96.27
76022;BME280;64718;52.124;6.226;2023-03-01T02:41:02;103128.38;;;-3.74;96.92
76022;BME280;64718;52.124;6.226;2023-03-01T02:43:32;103130.91;;;-3.74;96.82
76022;BME280;64718;52.124;6.226;2023-03-01T02:46:05;103124.25;;;-3.72;97.23
76022;BME280;64718;52.124;6.226;2023-03-01T02:48:41;103127.72;;;-3.87;96.58
76022;BME280;64718;52.124;6.226;2023-03-01T02:51:21;103121.75;;;-4.03;96.93
76022;BME280;64718;52.124;6.226;2023-03-01T02:53:59;103115.59;;;-4.07;97.54
76022;BME280;64718;52.124;6.226;2023-03-01T02:56:31;103110.91;;;-4.16;97.76
76022;BME280;64718;52.124;6.226;2023-03-01T02:58:59;103103.44;;;-4.13;98.12
76022;BME280;64718;52.124;6.226;2023-03-01T03:01:27;103110.97;;;-4.14;98.56
76022;BME280;64718;52.124;6.226;2023-03-01T03:04:05;103109.16;;;-4.17;98.41
76022;BME280;64718;52.124;6.226;2023-03-01T03:06:33;103106.03;;;-4.27;98.57
76022;BME280;64718;52.124;6.226;2023-03-01T03:09:00;103113.25;;;-4.35;99.10
76022;BME280;64718;52.124;6.226;2023-03-01T03:11:26;103116.31;;;-4.40;98.98
76022;BME280;64718;52.124;6.226;2023-03-01T03:13:53;103111.84;;;-4.44;99.42
76022;BME280;64718;52.124;6.226;2023-03-01T03:16:21;103105.38;;;-4.39;100.00
76022;BME280;64718;52.124;6.226;2023-03-01T03:18:48;103111.84;;;-4.44;100.00
76022;BME280;64718;52.124;6.226;2023-03-01T03:21:15;103103.81;;;-4.52;100.00
76022;BME280;64718;52.124;6.226;2023-03-01T03:23:42;103094.47;;;-4.53;100.00
76022;BME280;64718;52.124;6.226;2023-03-01T03:26:09;103094.13;;;-4.59;100.00
76022;BME280;64718;52.124;6.226;2023-03-01T03:28:38;103099.19;;;-4.74;100.00
76022;BME280;64718;52.124;6.226;2023-03-01T03:31:06;103094.47;;;-4.83;100.00
76022;BME280;64718;52.124;6.226;2023-03-01T03:33:34;103094.31;;;-5.00;100.00
76022;BME280;64718;52.124;6.226;2023-03-01T03:36:00;103089.41;;;-5.12;100.00
76022;BME280;64718;52.124;6.226;2023-03-01T03:38:27;103091.41;;;-5.06;100.00
76022;BME280;64718;52.124;6.226;2023-03-01T03:41:00;103093.78;;;-5.10;100.00
76022;BME280;64718;52.124;6.226;2023-03-01T03:43:27;103099.28;;;-5.02;100.00
76022;BME280;64718;52.124;6.226;2023-03-01T03:45:54;103088.34;;;-4.86;100.00
76022;BME280;64718;52.124;6.226;2023-03-01T03:48:22;103092.28;;;-4.77;100.00
76022;BME280;64718;52.124;6.226;2023-03-01T03:50:52;103092.34;;;-4.75;100.00
76022;BME280;64718;52.124;6.226;2023-03-01T03:53:19;103090.34;;;-4.66;100.00
76022;BME280;64718;52.124;6.226;2023-03-01T03:55:46;103093.16;;;-4.61;100.00
76022;BME280;64718;52.124;6.226;2023-03-01T03:58:15;103092.63;;;-4.56;100.00
76022;BME280;64718;52.124;6.226;2023-03-01T04:00:44;103097.09;;;-4.52;100.00
76022;BME280;64718;52.124;6.226;2023-03-01T04:03:13;103090.97;;;-4.55;100.00
76022;BME280;64718;52.124;6.226;2023-03-01T04:05:41;103088.25;;;-4.58;100.00
76022;BME280;64718;52.124;6.226;2023-03-01T04:08:09;103090.78;;;-4.58;100.00
76022;BME280;64718;52.124;6.226;2023-03-01T04:10:38;103087.53;;;-4.56;100.00
76022;BME280;64718;52.124;6.226;2023-03-01T04:13:06;103088.47;;;-4.39;100.00
76022;BME280;64718;52.124;6.226;2023-03-01T04:15:33;103088.78;;;-4.33;100.00
76022;BME280;64718;52.124;6.226;2023-03-01T04:18:00;103092.47;;;-4.28;100.00
76022;BME280;64718;52.124;6.226;2023-03-01T04:20:30;103092.53;;;-4.26;100.00
76022;BME280;64718;52.124;6.226;2023-03-01T04:23:00;103095.97;;;-4.26;100.00
76022;BME280;64718;52.124;6.226;2023-03-01T04:25:37;103093.34;;;-4.27;100.00
76022;BME280;64718;52.124;6.226;2023-03-01T04:28:04;103089.13;;;-4.27;100.00
76022;BME280;64718;52.124;6.226;2023-03-01T04:30:30;103089.66;;;-4.32;100.00
76022;BME280;64718;52.124;6.226;2023-03-01T04:33:01;103078.06;;;-4.43;100.00
76022;BME280;64718;52.124;6.226;2023-03-01T04:35:28;103069.59;;;-4.28;100.00
76022;BME280;64718;52.124;6.226;2023-03-01T04:37:54;103072.72;;;-4.17;100.00
76022;BME280;64718;52.124;6.226;2023-03-01T04:40:21;103066.28;;;-4.10;100.00
76022;BME280;64718;52.124;6.226;2023-03-01T04:42:49;103063.13;;;-4.06;100.00
76022;BME280;64718;52.124;6.226;2023-03-01T04:45:15;103060.38;;;-3.95;100.00
76022;BME280;64718;52.124;6.226;2023-03-01T04:47:43;103062.53;;;-4.02;100.00
76022;BME280;64718;52.124;6.226;2023-03-01T04:50:12;103067.47;;;-4.20;99.64
76022;BME280;64718;52.124;6.226;2023-03-01T04:52:39;103067.28;;;-4.39;100.00
76022;BME280;64718;52.124;6.226;2023-03-01T04:55:06;103062.50;;;-4.64;100.00
76022;BME280;64718;52.124;6.226;2023-03-01T04:57:33;103056.16;;;-4.87;100.00
76022;BME280;64718;52.124;6.226;2023-03-01T05:00:02;103042.78;;;-5.14;100.00
76022;BME280;64718;52.124;6.226;2023-03-01T05:02:45;103050.38;;;-5.29;100.00
76022;BME280;64718;52.124;6.226;2023-03-01T05:05:13;103047.47;;;-5.50;100.00
76022;BME280;64718;52.124;6.226;2023-03-01T05:07:40;103042.47;;;-5.63;100.00
76022;BME280;64718;52.124;6.226;2023-03-01T05:10:07;103049.13;;;-5.65;100.00
76022;BME280;64718;52.124;6.226;2023-03-01T05:12:34;103047.47;;;-5.64;100.00
76022;BME280;64718;52.124;6.226;2023-03-01T05:15:04;103044.75;;;-5.67;100.00
76022;BME280;64718;52.124;6.226;2023-03-01T05:17:32;103033.81;;;-5.66;100.00
76022;BME280;64718;52.124;6.226;2023-03-01T05:19:59;103037.38;;;-5.78;100.00
76022;BME280;64718;52.124;6.226;2023-03-01T05:22:26;103035.84;;;-5.89;100.00
76022;BME280;64718;52.124;6.226;2023-03-01T05:24:53;103031.06;;;-5.99;100.00
76022;BME280;64718;52.124;6.226;2023-03-01T05:27:20;103030.59;;;-6.07;100.00
76022;BME280;64718;52.124;6.226;2023-03-01T05:29:48;103026.50;;;-6.04;100.00
76022;BME280;64718;52.124;6.226;2023-03-01T05:32:16;103022.50;;;-5.86;100.00
76022;BME280;64718;52.124;6.226;2023-03-01T05:34:42;103021.53;;;-5.88;100.00
76022;BME280;64718;52.124;6.226;2023-03-01T05:37:09;103017.69;;;-5.96;100.00
76022;BME280;64718;52.124;6.226;2023-03-01T05:39:36;103021.00;;;-5.97;100.00
76022;BME280;64718;52.124;6.226;2023-03-01T05:42:03;103026.03;;;-6.12;100.00
76022;BME280;64718;52.124;6.226;2023-03-01T05:44:29;103017.09;;;-6.20;100.00
76022;BME280;64718;52.124;6.226;2023-03-01T05:46:56;103013.47;;;-6.11;100.00
76022;BME280;64718;52.124;6.226;2023-03-01T05:49:25;103011.34;;;-6.18;100.00
76022;BME280;64718;52.124;6.226;2023-03-01T05:51:53;103016.81;;;-6.25;100.00
76022;BME280;64718;52.124;6.226;2023-03-01T05:54:20;103010.41;;;-6.33;100.00
76022;BME280;64718;52.124;6.226;2023-03-01T05:56:48;103018.56;;;-6.24;100.00
76022;BME280;64718;52.124;6.226;2023-03-01T05:59:14;103017.19;;;-6.19;100.00
76022;BME280;64718;52.124;6.226;2023-03-01T06:01:41;103013.75;;;-6.06;100.00
76022;BME280;64718;52.124;6.226;2023-03-01T06:04:08;103020.81;;;-6.00;100.00
76022;BME280;64718;52.124;6.226;2023-03-01T06:06:36;103015.94;;;-5.97;100.00
76022;BME280;64718;52.124;6.226;2023-03-01T06:09:03;103015.81;;;-6.14;100.00
76022;BME280;64718;52.124;6.226;2023-03-01T06:11:33;103011.84;;;-6.23;100.00
76022;BME280;64718;52.124;6.226;2023-03-01T06:14:00;103019.94;;;-6.29;100.00
76022;BME280;64718;52.124;6.226;2023-03-01T06:16:26;103016.72;;;-6.26;100.00
76022;BME280;64718;52.124;6.226;2023-03-01T06:18:53;103021.25;;;-6.08;100.00
76022;BME280;64718;52.124;6.226;2023-03-01T06:21:19;103016.53;;;-5.87;100.00
76022;BME280;64718;52.124;6.226;2023-03-01T06:23:47;103011.97;;;-5.64;100.00
76022;BME280;64718;52.124;6.226;2023-03-01T06:26:14;103007.00;;;-5.63;100.00
76022;BME280;64718;52.124;6.226;2023-03-01T06:28:40;103010.69;;;-5.58;100.00
76022;BME280;64718;52.124;6.226;2023-03-01T06:31:07;103014.09;;;-5.57;100.00
76022;BME280;64718;52.124;6.226;2023-03-01T06:33:34;103011.03;;;-5.66;100.00
76022;BME280;64718;52.124;6.226;2023-03-01T06:36:03;103011.75;;;-5.82;100.00
76022;BME280;64718;52.124;6.226;2023-03-01T06:38:30;103011.25;;;-5.91;100.00
76022;BME280;64718;52.124;6.226;2023-03-01T06:40:58;103015.53;;;-5.90;100.00
76022;BME280;64718;52.124;6.226;2023-03-01T06:43:24;103017.50;;;-5.85;100.00
76022;BME280;64718;52.124;6.226;2023-03-01T06:45:51;103019.53;;;-5.79;100.00
76022;BME280;64718;52.124;6.226;2023-03-01T06:48:17;103018.16;;;-5.74;100.00
76022;BME280;64718;52.124;6.226;2023-03-01T06:50:44;103022.81;;;-5.67;100.00
76022;BME280;64718;52.124;6.226;2023-03-01T06:53:10;103023.50;;;-5.69;100.00
76022;BME280;64718;52.124;6.226;2023-03-01T06:55:37;103031.91;;;-5.70;100.00
76022;BME280;64718;52.124;6.226;2023-03-01T06:58:05;103030.31;;;-5.68;100.00
76022;BME280;64718;52.124;6.226;2023-03-01T07:00:32;103031.28;;;-5.66;100.00
76022;BME280;64718;52.124;6.226;2023-03-01T07:02:59;103032.97;;;-5.52;100.00
76022;BME280;64718;52.124;6.226;2023-03-01T07:05:27;103026.94;;;-5.39;100.00
76022;BME280;64718;52.124;6.226;2023-03-01T07:07:53;103023.78;;;-5.21;100.00
76022;BME280;64718;52.124;6.226;2023-03-01T07:10:20;103022.22;;;-5.04;100.00
76022;BME280;64718;52.124;6.226;2023-03-01T07:12:47;103030.94;;;-4.84;100.00
76022;BME280;64718;52.124;6.226;2023-03-01T07:15:15;103028.13;;;-4.59;100.00
76022;BME280;64718;52.124;6.226;2023-03-01T07:17:41;103023.56;;;-4.34;100.00
76022;BME280;64718;52.124;6.226;2023-03-01T07:20:10;103010.94;;;-3.67;100.00
76022;BME280;64718;52.124;6.226;2023-03-01T07:22:39;103013.00;;;-2.37;100.00
76022;BME280;64718;52.124;6.226;2023-03-01T07:25:07;103015.28;;;-0.84;96.72
76022;BME280;64718;52.124;6.226;2023-03-01T07:27:33;103015.06;;;0.23;89.56
76022;BME280;64718;52.124;6.226;2023-03-01T07:30:00;103005.25;;;1.13;83.45
76022;BME280;64718;52.124;6.226;2023-03-01T07:32:28;103008.34;;;1.58;80.58
76022;BME280;64718;52.124;6.226;2023-03-01T07:34:54;103006.84;;;1.95;78.37
76022;BME280;64718;52.124;6.226;2023-03-01T07:37:21;103005.69;;;2.15;77.37
76022;BME280;64718;52.124;6.226;2023-03-01T07:39:47;103000.22;;;2.33;76.04
76022;BME280;64718;52.124;6.226;2023-03-01T07:42:14;103004.81;;;2.14;75.94
76022;BME280;64718;52.124;6.226;2023-03-01T07:44:40;103000.22;;;2.33;75.39
76022;BME280;64718;52.124;6.226;2023-03-01T07:47:07;103004.06;;;2.50;74.11
76022;BME280;64718;52.124;6.226;2023-03-01T07:49:35;103006.44;;;2.42;75.25
76022;BME280;64718;52.124;6.226;2023-03-01T07:52:01;103005.66;;;2.79;74.34
76022;BME280;64718;52.124;6.226;2023-03-01T07:54:28;102999.59;;;3.12;72.94
76022;BME280;64718;52.124;6.226;2023-03-01T07:56:56;103005.72;;;3.17;72.97
76022;BME280;64718;52.124;6.226;2023-03-01T07:59:22;103006.63;;;3.19;71.76
76022;BME280;64718;52.124;6.226;2023-03-01T08:01:54;103001.63;;;3.25;71.48
76022;BME280;64718;52.124;6.226;2023-03-01T08:04:20;103002.09;;;3.09;71.68
76022;BME280;64718;52.124;6.226;2023-03-01T08:06:48;103004.16;;;3.24;72.08
76022;BME280;64718;52.124;6.226;2023-03-01T08:09:14;103005.50;;;3.45;71.48
76022;BME280;64718;52.124;6.226;2023-03-01T08:11:41;103011.72;;;3.55;71.27
76022;BME280;64718;52.124;6.226;2023-03-01T08:14:08;103006.84;;;3.30;72.02
76022;BME280;64718;52.124;6.226;2023-03-01T08:16:35;103020.22;;;3.51;71.87
76022;BME280;64718;52.124;6.226;2023-03-01T08:19:04;103015.91;;;3.50;72.27
76022;BME280;64718;52.124;6.226;2023-03-01T08:21:30;103008.38;;;3.59;71.41
76022;BME280;64718;52.124;6.226;2023-03-01T08:23:58;103012.66;;;4.01;70.38
76022;BME280;64718;52.124;6.226;2023-03-01T08:26:25;103008.25;;;3.95;69.57
76022;BME280;64718;52.124;6.226;2023-03-01T08:28:51;102998.88;;;3.99;69.93
76022;BME280;64718;52.124;6.226;2023-03-01T08:31:21;102994.81;;;4.08;70.58
76022;BME280;64718;52.124;6.226;2023-03-01T08:33:50;103001.19;;;4.29;67.80
76022;BME280;64718;52.124;6.226;2023-03-01T08:36:20;102992.41;;;4.18;68.78
76022;BME280;64718;52.124;6.226;2023-03-01T08:38:47;102994.53;;;4.41;69.08
76022;BME280;64718;52.124;6.226;2023-03-01T08:41:16;102992.28;;;4.60;68.96
76022;BME280;64718;52.124;6.226;2023-03-01T08:43:42;102982.97;;;4.66;68.88
76022;BME280;64718;52.124;6.226;2023-03-01T08:46:10;102993.59;;;4.86;67.85
76022;BME280;64718;52.124;6.226;2023-03-01T08:48:36;102994.47;;;4.87;68.22
76022;BME280;64718;52.124;6.226;2023-03-01T08:51:11;102989.91;;;4.70;67.17
76022;BME280;64718;52.124;6.226;2023-03-01T08:53:38;102984.06;;;4.81;67.21
76022;BME280;64718;52.124;6.226;2023-03-01T08:56:05;102977.41;;;4.96;66.98
76022;BME280;64718;52.124;6.226;2023-03-01T08:58:33;102975.09;;;5.13;65.88
76022;BME280;64718;52.124;6.226;2023-03-01T09:01:00;102974.38;;;5.22;66.67
76022;BME280;64718;52.124;6.226;2023-03-01T09:03:27;102976.22;;;5.30;65.90
76022;BME280;64718;52.124;6.226;2023-03-01T09:05:59;102974.47;;;5.29;65.24
76022;BME280;64718;52.124;6.226;2023-03-01T09:08:26;102966.56;;;5.19;66.08
76022;BME280;64718;52.124;6.226;2023-03-01T09:10:53;102965.78;;;5.21;65.66
76022;BME280;64718;52.124;6.226;2023-03-01T09:13:19;102968.53;;;4.76;66.37
76022;BME280;64718;52.124;6.226;2023-03-01T09:15:47;102960.31;;;5.01;67.92
76022;BME280;64718;52.124;6.226;2023-03-01T09:18:14;102966.91;;;4.83;66.63
76022;BME280;64718;52.124;6.226;2023-03-01T09:20:40;102969.31;;;4.22;67.29
76022;BME280;64718;52.124;6.226;2023-03-01T09:23:07;102976.69;;;4.52;67.97
76022;BME280;64718;52.124;6.226;2023-03-01T09:25:34;102976.88;;;4.13;68.55
76022;BME280;64718;52.124;6.226;2023-03-01T09:28:00;102964.94;;;3.74;70.60
76022;BME280;64718;52.124;6.226;2023-03-01T09:30:27;102967.09;;;3.53;71.02
76022;BME280;64718;52.124;6.226;2023-03-01T09:32:56;102971.88;;;3.38;72.33
76022;BME280;64718;52.124;6.226;2023-03-01T09:35:22;102962.63;;;3.46;73.02
76022;BME280;64718;52.124;6.226;2023-03-01T09:37:49;102963.69;;;3.54;71.59
76022;BME280;64718;52.124;6.226;2023-03-01T09:40:18;102962.19;;;3.65;71.61
76022;BME280;64718;52.124;6.226;2023-03-01T09:42:53;102958.97;;;3.75;70.38
76022;BME280;64718;52.124;6.226;2023-03-01T09:45:27;102949.03;;;3.94;69.21
76022;BME280;64718;52.124;6.226;2023-03-01T09:47:56;102948.56;;;4.15;67.55
76022;BME280;64718;52.124;6.226;2023-03-01T09:50:24;102946.03;;;4.16;66.88
76022;BME280;64718;52.124;6.226;2023-03-01T09:53:00;102938.22;;;4.11;66.21
76022;BME280;64718;52.124;6.226;2023-03-01T09:55:31;102935.78;;;4.19;66.74
76022;BME280;64718;52.124;6.226;2023-03-01T09:58:04;102936.63;;;4.20;66.48
76022;BME280;64718;52.124;6.226;2023-03-01T10:00:38;102932.50;;;4.28;64.04
76022;BME280;64718;52.124;6.226;2023-03-01T10:03:14;102918.81;;;4.32;66.32
76022;BME280;64718;52.124;6.226;2023-03-01T10:05:49;102922.38;;;4.40;64.19
76022;BME280;64718;52.124;6.226;2023-03-01T10:08:45;102926.88;;;4.52;64.25
76022;BME280;64718;52.124;6.226;2023-03-01T10:11:20;102921.97;;;4.65;63.21
76022;BME280;64718;52.124;6.226;2023-03-01T10:13:52;102915.31;;;4.81;64.08
76022;BME280;64718;52.124;6.226;2023-03-01T10:16:24;102916.00;;;4.69;61.17
76022;BME280;64718;52.124;6.226;2023-03-01T10:18:58;102910.72;;;4.62;60.24
76022;BME280;64718;52.124;6.226;2023-03-01T10:21:26;102910.00;;;4.69;61.46
76022;BME280;64718;52.124;6.226;2023-03-01T10:23:53;102910.09;;;4.76;62.29
76022;BME280;64718;52.124;6.226;2023-03-01T10:26:38;102895.59;;;4.85;63.88
76022;BME280;64718;52.124;6.226;2023-03-01T10:29:08;102893.19;;;4.95;60.24
76022;BME280;64718;52.124;6.226;2023-03-01T10:31:43;102895.03;;;5.05;59.33
76022;BME280;64718;52.124;6.226;2023-03-01T10:34:14;102891.84;;;5.22;59.15
76022;BME280;64718;52.124;6.226;2023-03-01T10:36:42;102891.94;;;5.31;60.82
76022;BME280;64718;52.124;6.226;2023-03-01T10:39:17;102895.44;;;5.36;53.45
76022;BME280;64718;52.124;6.226;2023-03-01T10:41:54;102877.47;;;5.45;52.05
76022;BME280;64718;52.124;6.226;2023-03-01T10:44:39;102882.69;;;5.50;53.07
76022;BME280;64718;52.124;6.226;2023-03-01T10:47:13;102875.09;;;5.62;52.52
76022;BME280;64718;52.124;6.226;2023-03-01T10:49:51;102872.50;;;5.62;50.95
76022;BME280;64718;52.124;6.226;2023-03-01T10:52:20;102872.44;;;5.54;51.00
76022;BME280;64718;52.124;6.226;2023-03-01T10:54:52;102869.84;;;5.56;51.01
76022;BME280;64718;52.124;6.226;2023-03-01T10:57:35;102873.28;;;5.55;50.89
76022;BME280;64718;52.124;6.226;2023-03-01T11:00:20;102876.03;;;5.70;52.66
76022;BME280;64718;52.124;6.226;2023-03-01T11:02:49;102870.94;;;5.76;54.22
76022;BME280;64718;52.124;6.226;2023-03-01T11:05:21;102867.53;;;5.79;51.17
76022;BME280;64718;52.124;6.226;2023-03-01T11:07:51;102870.94;;;5.78;52.88
76022;BME280;64718;52.124;6.226;2023-03-01T11:10:19;102875.34;;;5.83;52.00
76022;BME280;64718;52.124;6.226;2023-03-01T11:12:46;102877.03;;;5.80;49.15
76022;BME280;64718;52.124;6.226;2023-03-01T11:15:22;102880.47;;;5.82;50.01
76022;BME280;64718;52.124;6.226;2023-03-01T11:17:50;102879.63;;;5.81;49.75
76022;BME280;64718;52.124;6.226;2023-03-01T11:20:24;102877.03;;;5.81;51.33
76022;BME280;64718;52.124;6.226;2023-03-01T11:22:53;102870.28;;;5.91;51.71
76022;BME280;64718;52.124;6.226;2023-03-01T11:25:24;102869.53;;;6.04;50.76
76022;BME280;64718;52.124;6.226;2023-03-01T11:27:52;102869.63;;;6.16;50.16
76022;BME280;64718;52.124;6.226;2023-03-01T11:30:23;102865.25;;;6.06;50.22
76022;BME280;64718;52.124;6.226;2023-03-01T11:33:01;102849.84;;;6.20;51.85
76022;BME280;64718;52.124;6.226;2023-03-01T11:35:31;102851.69;;;6.34;53.41
76022;BME280;64718;52.124;6.226;2023-03-01T11:38:09;102857.72;;;6.35;53.65
76022;BME280;64718;52.124;6.226;2023-03-01T11:40:44;102848.25;;;6.35;50.44
76022;BME280;64718;52.124;6.226;2023-03-01T11:43:19;102845.78;;;6.49;52.49
76022;BME280;64718;52.124;6.226;2023-03-01T11:45:58;102846.78;;;6.70;50.70
76022;BME280;64718;52.124;6.226;2023-03-01T11:48:41;102843.31;;;6.69;50.04
76022;BME280;64718;52.124;6.226;2023-03-01T11:51:20;102844.22;;;6.76;49.77
76022;BME280;64718;52.124;6.226;2023-03-01T11:54:11;102842.50;;;6.76;48.25
76022;BME280;64718;52.124;6.226;2023-03-01T11:56:43;102845.13;;;6.88;48.29
76022;BME280;64718;52.124;6.226;2023-03-01T12:02:58;102833.09;;;6.93;48.59
76022;BME280;64718;52.124;6.226;2023-03-01T12:05:48;102833.06;;;6.86;44.25
76022;BME280;64718;52.124;6.226;2023-03-01T12:08:24;102843.38;;;6.78;45.81
76022;BME280;64718;52.124;6.226;2023-03-01T12:11:03;102848.66;;;6.95;47.09
76022;BME280;64718;52.124;6.226;2023-03-01T12:14:03;102846.06;;;6.95;45.69
76022;BME280;64718;52.124;6.226;2023-03-01T12:20:02;102834.94;;;7.19;46.97
76022;BME280;64718;52.124;6.226;2023-03-01T12:22:39;102828.88;;;7.11;44.76
76022;BME280;64718;52.124;6.226;2023-03-01T12:25:21;102829.69;;;6.99;43.65
76022;BME280;64718;52.124;6.226;2023-03-01T12:28:07;102821.94;;;7.01;43.58
76022;BME280;64718;52.124;6.226;2023-03-01T12:33:45;102806.50;;;7.29;44.58
76022;BME280;64718;52.124;6.226;2023-03-01T12:36:48;102805.69;;;7.50;43.47
76022;BME280;64718;52.124;6.226;2023-03-01T12:39:28;102810.88;;;7.49;42.27
76022;BME280;64718;52.124;6.226;2023-03-01T12:42:05;102807.41;;;7.51;42.63
76022;BME280;64718;52.124;6.226;2023-03-01T12:44:59;102805.72;;;7.64;47.75
76022;BME280;64718;52.124;6.226;2023-03-01T12:47:58;102791.00;;;7.36;45.46
76022;BME280;64718;52.124;6.226;2023-03-01T12:50:38;102790.09;;;7.20;45.40
76022;BME280;64718;52.124;6.226;2023-03-01T12:53:19;102784.03;;;7.15;45.43
76022;BME280;64718;52.124;6.226;2023-03-01T12:55:47;102781.47;;;7.25;45.19
76022;BME280;64718;52.124;6.226;2023-03-01T12:58:23;102772.88;;;7.29;47.37
76022;BME280;64718;52.124;6.226;2023-03-01T13:01:02;102762.53;;;7.37;47.54
76022;BME280;64718;52.124;6.226;2023-03-01T13:03:38;102760.78;;;7.25;45.70
76022;BME280;64718;52.124;6.226;2023-03-01T13:06:15;102759.03;;;7.18;47.45
76022;BME280;64718;52.124;6.226;2023-03-01T13:08:48;102753.03;;;7.30;46.83
76022;BME280;64718;52.124;6.226;2023-03-01T13:11:18;102741.81;;;7.39;46.44
76022;BME280;64718;52.124;6.226;2023-03-01T13:13:46;102746.97;;;7.33;44.70